sensor_id;sensor_type;location;lat;lon;timestamp;temperature;humidity
10873;DHT22;34586;53.616;10.032;2022-10-31T00:00:22;12.00;99.90
10873;DHT22;34586;53.616;10.032;2022-10-31T00:02:48;12.00;99.90
10873;DHT22;34586;53.616;10.032;2022-10-31T00:05:13;12.00;99.90
10873;DHT22;34586;53.616;10.032;2022-10-31T00:07:39;11.90;99.90
10873;DHT22;34586;53.616;10.032;2022-10-31T00:10:05;12.00;99.90
10873;DHT22;34586;53.616;10.032;2022-10-31T00:12:31;12.00;99.90
10873;DHT22;34586;53.616;10.032;2022-10-31T00:14:57;11.90;99.90
10873;DHT22;34586;53.616;10.032;2022-10-31T00:17:22;11.90;99.90
10873;DHT22;34586;53.616;10.032;2022-10-31T00:19:48;11.90;99.90
10873;DHT22;34586;53.616;10.032;2022-10-31T00:22:14;11.80;99.90
10873;DHT22;34586;53.616;10.032;2022-10-31T00:24:39;11.70;99.90
10873;DHT22;34586;53.616;10.032;2022-10-31T00:27:05;11.80;99.90
10873;DHT22;34586;53.616;10.032;2022-10-31T00:29:30;11.70;99.90
10873;DHT22;34586;53.616;10.032;2022-10-31T00:31:56;11.70;99.90
10873;DHT22;34586;53.616;10.032;2022-10-31T00:34:21;11.80;99.90
10873;DHT22;34586;53.616;10.032;2022-10-31T00:36:47;11.80;99.90
10873;DHT22;34586;53.616;10.032;2022-10-31T00:39:12;11.70;99.90
10873;DHT22;34586;53.616;10.032;2022-10-31T00:41:38;11.70;99.90
10873;DHT22;34586;53.616;10.032;2022-10-31T00:44:03;11.80;99.90
10873;DHT22;34586;53.616;10.032;2022-10-31T00:46:29;11.60;99.90
10873;DHT22;34586;53.616;10.032;2022-10-31T00:48:54;11.60;99.90
10873;DHT22;34586;53.616;10.032;2022-10-31T00:51:20;11.60;99.90
10873;DHT22;34586;53.616;10.032;2022-10-31T00:53:46;11.60;99.90
10873;DHT22;34586;53.616;10.032;2022-10-31T00:56:12;11.60;99.90
10873;DHT22;34586;53.616;10.032;2022-10-31T00:58:37;12.20;99.90
10873;DHT22;34586;53.616;10.032;2022-10-31T01:01:03;11.50;99.90
10873;DHT22;34586;53.616;10.032;2022-10-31T01:03:31;11.60;99.90
10873;DHT22;34586;53.616;10.032;2022-10-31T01:05:59;11.60;99.90
10873;DHT22;34586;53.616;10.032;2022-10-31T01:08:27;11.60;99.90
10873;DHT22;34586;53.616;10.032;2022-10-31T01:11:05;11.60;99.90
10873;DHT22;34586;53.616;10.032;2022-10-31T01:13:31;11.70;99.90
10873;DHT22;34586;53.616;10.032;2022-10-31T01:15:58;11.60;99.90
10873;DHT22;34586;53.616;10.032;2022-10-31T01:18:33;11.60;99.90
10873;DHT22;34586;53.616;10.032;2022-10-31T01:21:13;11.60;99.90
10873;DHT22;34586;53.616;10.032;2022-10-31T01:23:39;11.90;99.90
10873;DHT22;34586;53.616;10.032;2022-10-31T01:26:11;12.00;99.90
10873;DHT22;34586;53.616;10.032;2022-10-31T01:28:39;12.20;99.90
10873;DHT22;34586;53.616;10.032;2022-10-31T01:31:07;12.40;99.90
10873;DHT22;34586;53.616;10.032;2022-10-31T01:33:34;12.50;99.90
10873;DHT22;34586;53.616;10.032;2022-10-31T01:36:00;13.20;99.90
10873;DHT22;34586;53.616;10.032;2022-10-31T01:38:26;12.60;99.90
10873;DHT22;34586;53.616;10.032;2022-10-31T01:40:52;12.80;99.90
10873;DHT22;34586;53.616;10.032;2022-10-31T01:43:18;12.80;99.90
10873;DHT22;34586;53.616;10.032;2022-10-31T01:45:49;12.80;99.90
10873;DHT22;34586;53.616;10.032;2022-10-31T01:48:19;12.80;99.90
10873;DHT22;34586;53.616;10.032;2022-10-31T01:50:49;12.80;99.90
10873;DHT22;34586;53.616;10.032;2022-10-31T01:53:17;12.70;99.90
10873;DHT22;34586;53.616;10.032;2022-10-31T01:55:45;12.60;99.90
10873;DHT22;34586;53.616;10.032;2022-10-31T01:58:18;12.60;99.90
10873;DHT22;34586;53.616;10.032;2022-10-31T02:00:48;12.70;99.90
10873;DHT22;34586;53.616;10.032;2022-10-31T02:03:16;12.90;99.90
10873;DHT22;34586;53.616;10.032;2022-10-31T02:05:43;12.80;99.90
10873;DHT22;34586;53.616;10.032;2022-10-31T02:08:27;12.70;99.90
10873;DHT22;34586;53.616;10.032;2022-10-31T02:10:54;12.70;99.90
10873;DHT22;34586;53.616;10.032;2022-10-31T02:13:22;12.60;99.90
10873;DHT22;34586;53.616;10.032;2022-10-31T02:15:53;12.60;99.90
10873;DHT22;34586;53.616;10.032;2022-10-31T02:18:20;12.60;99.90
10873;DHT22;34586;53.616;10.032;2022-10-31T02:23:59;12.60;99.90
10873;DHT22;34586;53.616;10.032;2022-10-31T02:26:46;12.60;99.90
10873;DHT22;34586;53.616;10.032;2022-10-31T02:35:06;12.50;99.90
10873;DHT22;34586;53.616;10.032;2022-10-31T02:40:14;12.50;99.90
10873;DHT22;34586;53.616;10.032;2022-10-31T02:48:18;12.70;99.90
10873;DHT22;34586;53.616;10.032;2022-10-31T02:50:50;12.70;99.90
10873;DHT22;34586;53.616;10.032;2022-10-31T02:53:17;12.60;99.90
10873;DHT22;34586;53.616;10.032;2022-10-31T02:56:05;12.70;99.90
10873;DHT22;34586;53.616;10.032;2022-10-31T02:58:38;12.70;99.90
10873;DHT22;34586;53.616;10.032;2022-10-31T03:06:23;12.90;99.90
10873;DHT22;34586;53.616;10.032;2022-10-31T03:11:26;12.90;99.90
10873;DHT22;34586;53.616;10.032;2022-10-31T03:14:11;12.90;99.90
10873;DHT22;34586;53.616;10.032;2022-10-31T03:19:11;12.90;99.90
10873;DHT22;34586;53.616;10.032;2022-10-31T03:21:40;12.80;99.90
10873;DHT22;34586;53.616;10.032;2022-10-31T03:24:09;12.60;99.90
10873;DHT22;34586;53.616;10.032;2022-10-31T03:26:36;12.60;99.90
10873;DHT22;34586;53.616;10.032;2022-10-31T03:29:06;12.60;99.90
10873;DHT22;34586;53.616;10.032;2022-10-31T03:31:38;12.60;99.90
10873;DHT22;34586;53.616;10.032;2022-10-31T03:34:06;12.70;99.90
10873;DHT22;34586;53.616;10.032;2022-10-31T03:36:34;12.70;99.90
10873;DHT22;34586;53.616;10.032;2022-10-31T03:39:02;12.80;99.90
10873;DHT22;34586;53.616;10.032;2022-10-31T03:41:32;12.80;99.90
10873;DHT22;34586;53.616;10.032;2022-10-31T03:44:03;12.80;99.90
10873;DHT22;34586;53.616;10.032;2022-10-31T03:46:31;12.80;99.90
10873;DHT22;34586;53.616;10.032;2022-10-31T03:48:57;12.80;99.90
10873;DHT22;34586;53.616;10.032;2022-10-31T03:51:32;12.70;99.90
10873;DHT22;34586;53.616;10.032;2022-10-31T03:54:14;12.80;99.90
10873;DHT22;34586;53.616;10.032;2022-10-31T03:56:55;12.70;99.90
10873;DHT22;34586;53.616;10.032;2022-10-31T03:59:34;12.60;99.90
10873;DHT22;34586;53.616;10.032;2022-10-31T04:02:05;12.60;99.90
10873;DHT22;34586;53.616;10.032;2022-10-31T04:04:33;12.60;99.90
10873;DHT22;34586;53.616;10.032;2022-10-31T04:07:00;12.60;99.90
10873;DHT22;34586;53.616;10.032;2022-10-31T04:09:28;12.60;99.90
10873;DHT22;34586;53.616;10.032;2022-10-31T04:11:56;12.60;99.90
10873;DHT22;34586;53.616;10.032;2022-10-31T04:14:25;12.60;99.90
10873;DHT22;34586;53.616;10.032;2022-10-31T04:16:51;12.60;99.90
10873;DHT22;34586;53.616;10.032;2022-10-31T04:19:17;12.60;99.90
10873;DHT22;34586;53.616;10.032;2022-10-31T04:21:43;12.60;99.90
10873;DHT22;34586;53.616;10.032;2022-10-31T04:24:09;12.60;99.90
10873;DHT22;34586;53.616;10.032;2022-10-31T04:26:34;12.60;99.90
10873;DHT22;34586;53.616;10.032;2022-10-31T04:29:01;12.60;99.90
10873;DHT22;34586;53.616;10.032;2022-10-31T04:31:28;12.60;99.90
10873;DHT22;34586;53.616;10.032;2022-10-31T04:33:54;12.70;99.90
10873;DHT22;34586;53.616;10.032;2022-10-31T04:36:19;12.70;99.90
10873;DHT22;34586;53.616;10.032;2022-10-31T04:38:45;12.70;99.90
10873;DHT22;34586;53.616;10.032;2022-10-31T04:41:11;12.70;99.90
10873;DHT22;34586;53.616;10.032;2022-10-31T04:43:36;12.80;99.90
10873;DHT22;34586;53.616;10.032;2022-10-31T04:46:02;12.80;99.90
10873;DHT22;34586;53.616;10.032;2022-10-31T04:48:28;12.80;99.90
10873;DHT22;34586;53.616;10.032;2022-10-31T04:50:59;12.90;99.90
10873;DHT22;34586;53.616;10.032;2022-10-31T04:53:24;12.90;99.90
10873;DHT22;34586;53.616;10.032;2022-10-31T04:55:51;13.00;99.90
10873;DHT22;34586;53.616;10.032;2022-10-31T04:58:17;13.00;99.90
10873;DHT22;34586;53.616;10.032;2022-10-31T05:00:42;13.00;99.90
10873;DHT22;34586;53.616;10.032;2022-10-31T05:03:09;13.00;99.90
10873;DHT22;34586;53.616;10.032;2022-10-31T05:05:35;13.10;99.90
10873;DHT22;34586;53.616;10.032;2022-10-31T05:08:01;13.10;99.90
10873;DHT22;34586;53.616;10.032;2022-10-31T05:10:28;13.10;99.90
10873;DHT22;34586;53.616;10.032;2022-10-31T05:12:56;13.10;99.90
10873;DHT22;34586;53.616;10.032;2022-10-31T05:15:24;13.20;99.90
10873;DHT22;34586;53.616;10.032;2022-10-31T05:17:50;13.10;99.90
10873;DHT22;34586;53.616;10.032;2022-10-31T05:20:17;13.10;99.90
10873;DHT22;34586;53.616;10.032;2022-10-31T05:22:44;13.10;99.90
10873;DHT22;34586;53.616;10.032;2022-10-31T05:25:11;13.20;99.90
10873;DHT22;34586;53.616;10.032;2022-10-31T05:27:44;13.20;99.90
10873;DHT22;34586;53.616;10.032;2022-10-31T05:30:12;13.20;99.90
10873;DHT22;34586;53.616;10.032;2022-10-31T05:32:47;13.20;99.90
10873;DHT22;34586;53.616;10.032;2022-10-31T05:35:15;13.20;99.90
10873;DHT22;34586;53.616;10.032;2022-10-31T05:37:41;13.20;99.90
10873;DHT22;34586;53.616;10.032;2022-10-31T05:40:08;13.20;99.90
10873;DHT22;34586;53.616;10.032;2022-10-31T05:42:35;13.20;99.90
10873;DHT22;34586;53.616;10.032;2022-10-31T05:45:01;13.90;99.90
10873;DHT22;34586;53.616;10.032;2022-10-31T05:47:26;13.20;99.90
10873;DHT22;34586;53.616;10.032;2022-10-31T05:49:52;13.20;99.90
10873;DHT22;34586;53.616;10.032;2022-10-31T05:52:18;13.20;99.90
10873;DHT22;34586;53.616;10.032;2022-10-31T05:54:43;13.20;99.90
10873;DHT22;34586;53.616;10.032;2022-10-31T05:57:10;13.30;99.90
10873;DHT22;34586;53.616;10.032;2022-10-31T05:59:36;13.30;99.90
10873;DHT22;34586;53.616;10.032;2022-10-31T06:02:01;13.20;99.90
10873;DHT22;34586;53.616;10.032;2022-10-31T06:04:27;13.30;99.90
10873;DHT22;34586;53.616;10.032;2022-10-31T06:06:53;13.20;99.90
10873;DHT22;34586;53.616;10.032;2022-10-31T06:09:18;13.30;99.90
10873;DHT22;34586;53.616;10.032;2022-10-31T06:11:44;13.20;99.90
10873;DHT22;34586;53.616;10.032;2022-10-31T06:14:10;13.30;99.90
10873;DHT22;34586;53.616;10.032;2022-10-31T06:16:35;13.30;99.90
10873;DHT22;34586;53.616;10.032;2022-10-31T06:19:01;13.30;99.90
10873;DHT22;34586;53.616;10.032;2022-10-31T06:21:26;13.30;99.90
10873;DHT22;34586;53.616;10.032;2022-10-31T06:23:52;13.30;99.90
10873;DHT22;34586;53.616;10.032;2022-10-31T06:26:18;13.30;99.90
10873;DHT22;34586;53.616;10.032;2022-10-31T06:28:44;13.30;99.90
10873;DHT22;34586;53.616;10.032;2022-10-31T06:31:10;13.30;99.90
10873;DHT22;34586;53.616;10.032;2022-10-31T06:33:35;13.30;99.90
10873;DHT22;34586;53.616;10.032;2022-10-31T06:36:01;13.20;99.90
10873;DHT22;34586;53.616;10.032;2022-10-31T06:38:27;13.30;99.90
10873;DHT22;34586;53.616;10.032;2022-10-31T06:40:54;13.30;99.90
10873;DHT22;34586;53.616;10.032;2022-10-31T06:43:20;13.40;99.90
10873;DHT22;34586;53.616;10.032;2022-10-31T06:45:46;13.40;99.90
10873;DHT22;34586;53.616;10.032;2022-10-31T06:48:12;13.40;99.90
10873;DHT22;34586;53.616;10.032;2022-10-31T06:50:38;13.40;99.90
10873;DHT22;34586;53.616;10.032;2022-10-31T06:53:03;13.40;99.90
10873;DHT22;34586;53.616;10.032;2022-10-31T06:55:29;13.40;99.90
10873;DHT22;34586;53.616;10.032;2022-10-31T06:57:57;13.40;99.90
10873;DHT22;34586;53.616;10.032;2022-10-31T07:00:24;13.50;99.90
10873;DHT22;34586;53.616;10.032;2022-10-31T07:02:58;13.50;99.90
10873;DHT22;34586;53.616;10.032;2022-10-31T07:05:25;13.50;99.90
10873;DHT22;34586;53.616;10.032;2022-10-31T07:08:04;13.80;99.90
10873;DHT22;34586;53.616;10.032;2022-10-31T07:10:31;13.40;99.90
10873;DHT22;34586;53.616;10.032;2022-10-31T07:13:00;13.50;99.90
10873;DHT22;34586;53.616;10.032;2022-10-31T07:15:29;13.50;99.90
10873;DHT22;34586;53.616;10.032;2022-10-31T07:18:06;13.50;99.90
10873;DHT22;34586;53.616;10.032;2022-10-31T07:20:32;13.50;99.90
10873;DHT22;34586;53.616;10.032;2022-10-31T07:22:58;13.50;99.90
10873;DHT22;34586;53.616;10.032;2022-10-31T07:25:25;13.60;99.90
10873;DHT22;34586;53.616;10.032;2022-10-31T07:27:51;13.60;99.90
10873;DHT22;34586;53.616;10.032;2022-10-31T07:30:17;13.80;99.90
10873;DHT22;34586;53.616;10.032;2022-10-31T07:32:44;13.50;99.90
10873;DHT22;34586;53.616;10.032;2022-10-31T07:35:14;13.60;99.90
10873;DHT22;34586;53.616;10.032;2022-10-31T07:37:40;13.60;99.90
10873;DHT22;34586;53.616;10.032;2022-10-31T07:40:07;13.60;99.90
10873;DHT22;34586;53.616;10.032;2022-10-31T07:42:37;13.60;99.90
10873;DHT22;34586;53.616;10.032;2022-10-31T07:45:08;13.60;99.90
10873;DHT22;34586;53.616;10.032;2022-10-31T07:47:43;13.60;99.90
10873;DHT22;34586;53.616;10.032;2022-10-31T07:50:12;13.60;99.90
10873;DHT22;34586;53.616;10.032;2022-10-31T07:52:39;13.60;99.90
10873;DHT22;34586;53.616;10.032;2022-10-31T07:55:05;13.60;99.90
10873;DHT22;34586;53.616;10.032;2022-10-31T07:57:31;13.60;99.90
10873;DHT22;34586;53.616;10.032;2022-10-31T07:59:57;13.70;99.90
10873;DHT22;34586;53.616;10.032;2022-10-31T08:02:24;13.70;99.90
10873;DHT22;34586;53.616;10.032;2022-10-31T08:04:50;13.70;99.90
10873;DHT22;34586;53.616;10.032;2022-10-31T08:07:16;13.70;99.90
10873;DHT22;34586;53.616;10.032;2022-10-31T08:09:42;13.80;99.90
10873;DHT22;34586;53.616;10.032;2022-10-31T08:12:07;13.80;99.90
10873;DHT22;34586;53.616;10.032;2022-10-31T08:14:33;13.80;99.90
10873;DHT22;34586;53.616;10.032;2022-10-31T08:16:58;13.80;99.90
10873;DHT22;34586;53.616;10.032;2022-10-31T08:19:25;13.80;99.90
10873;DHT22;34586;53.616;10.032;2022-10-31T08:21:51;13.90;99.90
10873;DHT22;34586;53.616;10.032;2022-10-31T08:24:18;14.00;99.90
10873;DHT22;34586;53.616;10.032;2022-10-31T08:26:43;14.10;99.90
10873;DHT22;34586;53.616;10.032;2022-10-31T08:29:09;14.00;99.90
10873;DHT22;34586;53.616;10.032;2022-10-31T08:31:36;14.10;99.90
10873;DHT22;34586;53.616;10.032;2022-10-31T08:34:01;14.10;99.90
10873;DHT22;34586;53.616;10.032;2022-10-31T08:36:28;14.10;99.90
10873;DHT22;34586;53.616;10.032;2022-10-31T08:38:54;14.10;99.90
10873;DHT22;34586;53.616;10.032;2022-10-31T08:41:20;14.10;99.90
10873;DHT22;34586;53.616;10.032;2022-10-31T08:43:46;14.20;99.90
10873;DHT22;34586;53.616;10.032;2022-10-31T08:46:11;14.20;99.90
10873;DHT22;34586;53.616;10.032;2022-10-31T08:48:37;14.20;99.90
10873;DHT22;34586;53.616;10.032;2022-10-31T08:51:03;14.30;99.90
10873;DHT22;34586;53.616;10.032;2022-10-31T08:53:28;14.30;99.90
10873;DHT22;34586;53.616;10.032;2022-10-31T08:55:55;14.30;99.90
10873;DHT22;34586;53.616;10.032;2022-10-31T08:58:22;14.30;99.90
10873;DHT22;34586;53.616;10.032;2022-10-31T09:00:50;14.30;99.90
10873;DHT22;34586;53.616;10.032;2022-10-31T09:03:25;14.30;99.90
10873;DHT22;34586;53.616;10.032;2022-10-31T09:05:54;14.20;99.90
10873;DHT22;34586;53.616;10.032;2022-10-31T09:08:20;14.30;99.90
10873;DHT22;34586;53.616;10.032;2022-10-31T09:10:46;14.30;99.90
10873;DHT22;34586;53.616;10.032;2022-10-31T09:13:16;14.30;99.90
10873;DHT22;34586;53.616;10.032;2022-10-31T09:15:44;14.30;99.90
10873;DHT22;34586;53.616;10.032;2022-10-31T09:18:11;14.40;99.90
10873;DHT22;34586;53.616;10.032;2022-10-31T09:20:38;14.40;99.90
10873;DHT22;34586;53.616;10.032;2022-10-31T09:23:06;14.50;99.90
10873;DHT22;34586;53.616;10.032;2022-10-31T09:25:33;14.50;99.90
10873;DHT22;34586;53.616;10.032;2022-10-31T09:28:01;14.70;99.90
10873;DHT22;34586;53.616;10.032;2022-10-31T09:30:29;14.60;99.90
10873;DHT22;34586;53.616;10.032;2022-10-31T09:33:02;14.90;99.90
10873;DHT22;34586;53.616;10.032;2022-10-31T09:35:28;14.60;99.90
10873;DHT22;34586;53.616;10.032;2022-10-31T09:38:10;14.60;99.90
10873;DHT22;34586;53.616;10.032;2022-10-31T09:40:41;14.70;99.90
10873;DHT22;34586;53.616;10.032;2022-10-31T09:43:25;14.60;99.90
10873;DHT22;34586;53.616;10.032;2022-10-31T09:46:07;14.70;99.90
10873;DHT22;34586;53.616;10.032;2022-10-31T09:51:10;14.60;99.90
10873;DHT22;34586;53.616;10.032;2022-10-31T09:56:14;14.90;99.90
10873;DHT22;34586;53.616;10.032;2022-10-31T09:58:45;15.00;99.90
10873;DHT22;34586;53.616;10.032;2022-10-31T10:01:23;14.90;99.90
10873;DHT22;34586;53.616;10.032;2022-10-31T10:03:55;14.90;99.90
10873;DHT22;34586;53.616;10.032;2022-10-31T10:06:25;14.90;99.90
10873;DHT22;34586;53.616;10.032;2022-10-31T10:08:55;15.40;99.90
10873;DHT22;34586;53.616;10.032;2022-10-31T10:15:24;14.90;99.90
10873;DHT22;34586;53.616;10.032;2022-10-31T10:20:56;14.80;99.90
10873;DHT22;34586;53.616;10.032;2022-10-31T10:26:13;14.70;99.90
10873;DHT22;34586;53.616;10.032;2022-10-31T10:28:44;14.70;99.90
10873;DHT22;34586;53.616;10.032;2022-10-31T10:31:17;14.70;99.90
10873;DHT22;34586;53.616;10.032;2022-10-31T10:39:46;14.90;99.90
10873;DHT22;34586;53.616;10.032;2022-10-31T10:42:14;14.90;99.90
10873;DHT22;34586;53.616;10.032;2022-10-31T10:45:00;15.00;99.90
10873;DHT22;34586;53.616;10.032;2022-10-31T10:48:02;15.00;99.90
10873;DHT22;34586;53.616;10.032;2022-10-31T10:50:36;14.80;99.90
10873;DHT22;34586;53.616;10.032;2022-10-31T10:53:46;15.10;99.90
10873;DHT22;34586;53.616;10.032;2022-10-31T10:56:41;15.20;99.90
10873;DHT22;34586;53.616;10.032;2022-10-31T10:59:14;15.20;99.90
10873;DHT22;34586;53.616;10.032;2022-10-31T11:01:41;15.20;99.90
10873;DHT22;34586;53.616;10.032;2022-10-31T11:04:34;15.30;99.90
10873;DHT22;34586;53.616;10.032;2022-10-31T11:07:10;15.30;99.90
10873;DHT22;34586;53.616;10.032;2022-10-31T11:09:37;15.30;99.90
10873;DHT22;34586;53.616;10.032;2022-10-31T11:14:44;15.50;99.90
10873;DHT22;34586;53.616;10.032;2022-10-31T11:20:54;15.50;99.90
10873;DHT22;34586;53.616;10.032;2022-10-31T11:23:18;15.60;99.90
10873;DHT22;34586;53.616;10.032;2022-10-31T11:25:50;15.60;99.90
10873;DHT22;34586;53.616;10.032;2022-10-31T11:28:17;15.70;99.90
10873;DHT22;34586;53.616;10.032;2022-10-31T11:30:58;15.90;97.70
10873;DHT22;34586;53.616;10.032;2022-10-31T11:33:47;15.80;99.90
10873;DHT22;34586;53.616;10.032;2022-10-31T11:36:23;15.60;99.60
10873;DHT22;34586;53.616;10.032;2022-10-31T11:38:51;15.70;82.50
10873;DHT22;34586;53.616;10.032;2022-10-31T11:41:35;15.70;99.90
10873;DHT22;34586;53.616;10.032;2022-10-31T11:44:15;15.80;99.90
10873;DHT22;34586;53.616;10.032;2022-10-31T11:46:50;15.90;50.50
10873;DHT22;34586;53.616;10.032;2022-10-31T11:52:01;16.00;35.40
10873;DHT22;34586;53.616;10.032;2022-10-31T11:54:33;16.10;20.50
10873;DHT22;34586;53.616;10.032;2022-10-31T11:57:00;16.30;43.30
10873;DHT22;34586;53.616;10.032;2022-10-31T11:59:30;16.70;1.00
10873;DHT22;34586;53.616;10.032;2022-10-31T12:01:58;16.70;1.00
10873;DHT22;34586;53.616;10.032;2022-10-31T12:04:46;16.70;1.00
10873;DHT22;34586;53.616;10.032;2022-10-31T12:07:12;16.70;1.00
10873;DHT22;34586;53.616;10.032;2022-10-31T12:09:38;16.60;1.00
10873;DHT22;34586;53.616;10.032;2022-10-31T12:20:25;16.70;1.00
10873;DHT22;34586;53.616;10.032;2022-10-31T12:23:25;16.70;1.00
10873;DHT22;34586;53.616;10.032;2022-10-31T12:34:04;16.70;1.00
10873;DHT22;34586;53.616;10.032;2022-10-31T12:36:50;16.80;1.00
10873;DHT22;34586;53.616;10.032;2022-10-31T12:39:29;16.90;1.00
10873;DHT22;34586;53.616;10.032;2022-10-31T12:45:37;17.00;1.00
10873;DHT22;34586;53.616;10.032;2022-10-31T12:49:00;16.80;1.00
10873;DHT22;34586;53.616;10.032;2022-10-31T12:51:50;16.80;1.00
10873;DHT22;34586;53.616;10.032;2022-10-31T12:59:47;16.40;1.00
10873;DHT22;34586;53.616;10.032;2022-10-31T13:02:23;16.30;1.00
10873;DHT22;34586;53.616;10.032;2022-10-31T13:05:06;16.20;1.00
10873;DHT22;34586;53.616;10.032;2022-10-31T13:07:49;16.20;1.00
10873;DHT22;34586;53.616;10.032;2022-10-31T13:16:17;16.30;1.00
10873;DHT22;34586;53.616;10.032;2022-10-31T13:21:27;16.20;1.00
10873;DHT22;34586;53.616;10.032;2022-10-31T13:23:57;16.10;1.00
10873;DHT22;34586;53.616;10.032;2022-10-31T13:27:10;16.00;1.00
10873;DHT22;34586;53.616;10.032;2022-10-31T13:29:25;16.00;1.00
10873;DHT22;34586;53.616;10.032;2022-10-31T13:31:52;15.70;1.00
10873;DHT22;34586;53.616;10.032;2022-10-31T13:34:42;15.50;25.70
10873;DHT22;34586;53.616;10.032;2022-10-31T13:37:25;15.30;33.50
10873;DHT22;34586;53.616;10.032;2022-10-31T13:42:55;15.30;51.80
10873;DHT22;34586;53.616;10.032;2022-10-31T13:45:24;15.30;79.90
10873;DHT22;34586;53.616;10.032;2022-10-31T13:50:28;15.60;70.50
10873;DHT22;34586;53.616;10.032;2022-10-31T13:53:11;15.60;12.40
10873;DHT22;34586;53.616;10.032;2022-10-31T13:55:42;15.70;44.00
10873;DHT22;34586;53.616;10.032;2022-10-31T13:58:28;15.60;1.00
10873;DHT22;34586;53.616;10.032;2022-10-31T14:03:37;15.30;31.50
10873;DHT22;34586;53.616;10.032;2022-10-31T14:06:04;15.30;41.70
10873;DHT22;34586;53.616;10.032;2022-10-31T14:08:34;15.30;52.00
10873;DHT22;34586;53.616;10.032;2022-10-31T14:11:00;15.30;82.80
10873;DHT22;34586;53.616;10.032;2022-10-31T14:13:31;15.30;90.60
10873;DHT22;34586;53.616;10.032;2022-10-31T14:16:06;15.90;69.10
10873;DHT22;34586;53.616;10.032;2022-10-31T14:18:45;15.40;46.90
10873;DHT22;34586;53.616;10.032;2022-10-31T14:23:52;15.30;57.60
10873;DHT22;34586;53.616;10.032;2022-10-31T14:28:54;15.30;16.00
10873;DHT22;34586;53.616;10.032;2022-10-31T14:52:57;14.70;99.90
10873;DHT22;34586;53.616;10.032;2022-10-31T14:55:26;14.70;99.90
10873;DHT22;34586;53.616;10.032;2022-10-31T14:58:06;14.70;99.90
10873;DHT22;34586;53.616;10.032;2022-10-31T15:00:33;14.90;99.90
10873;DHT22;34586;53.616;10.032;2022-10-31T15:03:25;14.70;99.90
10873;DHT22;34586;53.616;10.032;2022-10-31T15:05:54;14.70;99.90
10873;DHT22;34586;53.616;10.032;2022-10-31T15:08:34;14.50;99.90
10873;DHT22;34586;53.616;10.032;2022-10-31T15:11:13;14.60;99.90
10873;DHT22;34586;53.616;10.032;2022-10-31T15:13:49;14.60;99.90
10873;DHT22;34586;53.616;10.032;2022-10-31T15:16:33;14.50;99.90
10873;DHT22;34586;53.616;10.032;2022-10-31T15:19:08;14.50;99.90
10873;DHT22;34586;53.616;10.032;2022-10-31T15:21:36;14.40;99.90
10873;DHT22;34586;53.616;10.032;2022-10-31T15:24:05;14.40;99.90
10873;DHT22;34586;53.616;10.032;2022-10-31T15:26:39;14.40;99.90
10873;DHT22;34586;53.616;10.032;2022-10-31T15:29:19;14.30;99.90
10873;DHT22;34586;53.616;10.032;2022-10-31T15:31:58;14.30;99.90
10873;DHT22;34586;53.616;10.032;2022-10-31T15:34:41;14.20;99.90
10873;DHT22;34586;53.616;10.032;2022-10-31T15:37:15;14.20;99.90
10873;DHT22;34586;53.616;10.032;2022-10-31T15:39:42;14.20;99.90
10873;DHT22;34586;53.616;10.032;2022-10-31T15:42:30;14.30;99.90
10873;DHT22;34586;53.616;10.032;2022-10-31T15:47:39;14.00;99.90
10873;DHT22;34586;53.616;10.032;2022-10-31T15:52:53;14.00;99.90
10873;DHT22;34586;53.616;10.032;2022-10-31T15:55:22;13.90;99.90
10873;DHT22;34586;53.616;10.032;2022-10-31T15:57:53;13.90;99.90
10873;DHT22;34586;53.616;10.032;2022-10-31T16:00:30;13.90;99.90
10873;DHT22;34586;53.616;10.032;2022-10-31T16:05:44;13.80;99.90
10873;DHT22;34586;53.616;10.032;2022-10-31T16:10:58;13.70;99.90
10873;DHT22;34586;53.616;10.032;2022-10-31T16:13:32;13.70;99.90
10873;DHT22;34586;53.616;10.032;2022-10-31T16:16:01;13.50;99.90
10873;DHT22;34586;53.616;10.032;2022-10-31T16:18:27;13.40;99.90
10873;DHT22;34586;53.616;10.032;2022-10-31T16:20:55;13.40;99.90
10873;DHT22;34586;53.616;10.032;2022-10-31T16:23:23;13.40;99.90
10873;DHT22;34586;53.616;10.032;2022-10-31T16:25:50;13.40;99.90
10873;DHT22;34586;53.616;10.032;2022-10-31T16:28:19;13.30;99.90
10873;DHT22;34586;53.616;10.032;2022-10-31T16:30:46;13.80;99.90
10873;DHT22;34586;53.616;10.032;2022-10-31T16:33:34;13.40;99.90
10873;DHT22;34586;53.616;10.032;2022-10-31T16:38:59;13.40;99.90
10873;DHT22;34586;53.616;10.032;2022-10-31T16:41:25;13.40;99.90
10873;DHT22;34586;53.616;10.032;2022-10-31T16:43:51;13.40;99.90
10873;DHT22;34586;53.616;10.032;2022-10-31T16:46:26;14.60;99.90
10873;DHT22;34586;53.616;10.032;2022-10-31T16:48:53;13.50;99.90
10873;DHT22;34586;53.616;10.032;2022-10-31T16:51:19;13.30;99.90
10873;DHT22;34586;53.616;10.032;2022-10-31T16:53:46;13.50;99.90
10873;DHT22;34586;53.616;10.032;2022-10-31T16:56:25;13.50;99.90
10873;DHT22;34586;53.616;10.032;2022-10-31T16:58:52;13.50;99.90
10873;DHT22;34586;53.616;10.032;2022-10-31T17:01:18;13.50;99.90
10873;DHT22;34586;53.616;10.032;2022-10-31T17:03:44;13.50;99.90
10873;DHT22;34586;53.616;10.032;2022-10-31T17:06:13;13.40;99.90
10873;DHT22;34586;53.616;10.032;2022-10-31T17:08:39;13.50;99.90
10873;DHT22;34586;53.616;10.032;2022-10-31T17:11:05;13.50;99.90
10873;DHT22;34586;53.616;10.032;2022-10-31T17:13:33;13.50;99.90
10873;DHT22;34586;53.616;10.032;2022-10-31T17:16:00;13.50;99.90
10873;DHT22;34586;53.616;10.032;2022-10-31T17:18:26;13.40;99.90
10873;DHT22;34586;53.616;10.032;2022-10-31T17:21:00;13.40;99.90
10873;DHT22;34586;53.616;10.032;2022-10-31T17:23:27;13.40;99.90
10873;DHT22;34586;53.616;10.032;2022-10-31T17:25:53;13.40;99.90
10873;DHT22;34586;53.616;10.032;2022-10-31T17:28:19;13.40;99.90
10873;DHT22;34586;53.616;10.032;2022-10-31T17:30:44;13.40;99.90
10873;DHT22;34586;53.616;10.032;2022-10-31T17:33:14;13.40;99.90
10873;DHT22;34586;53.616;10.032;2022-10-31T17:35:41;13.40;99.90
10873;DHT22;34586;53.616;10.032;2022-10-31T17:38:07;13.40;99.90
10873;DHT22;34586;53.616;10.032;2022-10-31T17:40:32;13.60;99.90
10873;DHT22;34586;53.616;10.032;2022-10-31T17:42:58;13.40;99.90
10873;DHT22;34586;53.616;10.032;2022-10-31T17:45:25;14.00;99.90
10873;DHT22;34586;53.616;10.032;2022-10-31T17:47:52;13.70;99.90
10873;DHT22;34586;53.616;10.032;2022-10-31T17:50:19;13.30;99.90
10873;DHT22;34586;53.616;10.032;2022-10-31T17:52:45;13.30;99.90
10873;DHT22;34586;53.616;10.032;2022-10-31T17:55:11;13.30;99.90